createdAt,value
2017-12-29T00:00:53.567Z,99.90
2017-12-29T00:03:21.814Z,99.90
2017-12-29T00:05:49.284Z,99.90
2017-12-29T00:08:16.789Z,99.90
2017-12-29T00:10:44.279Z,99.90
2017-12-29T00:13:11.792Z,99.90
2017-12-29T00:15:39.282Z,99.90
2017-12-29T00:18:07.212Z,99.90
2017-12-29T00:20:35.459Z,99.90
2017-12-29T00:23:02.901Z,99.90
2017-12-29T00:25:30.403Z,99.90
2017-12-29T00:27:58.622Z,99.90
2017-12-29T00:30:26.069Z,99.90
2017-12-29T00:32:53.544Z,99.90
2017-12-29T00:35:20.981Z,99.90
2017-12-29T00:37:48.507Z,99.90
2017-12-29T00:40:16.713Z,99.90
2017-12-29T00:42:44.190Z,99.90
2017-12-29T00:45:11.634Z,99.90
2017-12-29T00:47:39.088Z,99.90
2017-12-29T00:50:06.534Z,99.90
2017-12-29T00:52:34.003Z,99.90
2017-12-29T00:55:01.514Z,99.90
2017-12-29T00:57:28.970Z,99.90
2017-12-29T00:59:56.452Z,99.90
2017-12-29T01:02:24.647Z,99.90
2017-12-29T01:04:52.112Z,99.90
2017-12-29T01:07:19.551Z,99.90
2017-12-29T01:09:47.014Z,99.90
2017-12-29T01:12:14.462Z,99.90
2017-12-29T01:14:42.680Z,99.90
2017-12-29T01:17:10.131Z,99.90
2017-12-29T01:19:37.599Z,99.90
2017-12-29T01:22:05.045Z,99.90
2017-12-29T01:24:32.497Z,99.90
2017-12-29T01:27:00.048Z,99.90
2017-12-29T01:29:27.496Z,99.90
2017-12-29T01:31:54.950Z,99.90
2017-12-29T01:34:22.417Z,99.90
2017-12-29T01:36:49.870Z,99.90
2017-12-29T01:39:17.324Z,99.90
2017-12-29T01:41:44.771Z,99.90
2017-12-29T01:44:12.993Z,99.90
2017-12-29T01:46:40.440Z,99.90
2017-12-29T01:49:07.888Z,99.90
2017-12-29T01:51:35.345Z,99.90
2017-12-29T01:54:02.786Z,99.90
2017-12-29T01:56:30.239Z,99.90
2017-12-29T01:58:58.445Z,99.90
2017-12-29T02:01:25.922Z,99.90
2017-12-29T02:03:53.356Z,99.90
2017-12-29T02:06:20.804Z,99.90
2017-12-29T02:08:48.245Z,99.90
2017-12-29T02:11:15.700Z,99.90
2017-12-29T02:13:43.904Z,99.90
2017-12-29T02:16:11.356Z,99.90
2017-12-29T02:18:38.815Z,99.90
2017-12-29T02:21:06.271Z,99.90
2017-12-29T02:23:33.716Z,99.90
2017-12-29T02:26:01.161Z,99.90
2017-12-29T02:28:29.390Z,99.90
2017-12-29T02:30:56.828Z,99.90
2017-12-29T02:33:24.286Z,99.90
2017-12-29T02:35:51.788Z,99.90
2017-12-29T02:38:19.236Z,99.90
2017-12-29T02:40:46.683Z,99.90
2017-12-29T02:43:14.150Z,99.90
2017-12-29T02:45:41.596Z,99.90
2017-12-29T02:48:09.053Z,99.90
2017-12-29T02:56:42.566Z,99.90
2017-12-29T02:59:10.025Z,99.90
2017-12-29T03:01:37.466Z,99.90
2017-12-29T03:04:04.929Z,99.90
2017-12-29T03:06:33.545Z,99.90
2017-12-29T03:09:01.003Z,99.90
2017-12-29T03:11:28.450Z,99.90
2017-12-29T03:13:55.896Z,99.90
2017-12-29T03:16:23.393Z,99.90
2017-12-29T03:18:50.835Z,99.90
2017-12-29T03:21:18.296Z,99.90
2017-12-29T03:23:45.746Z,99.90
2017-12-29T03:26:13.186Z,99.90
2017-12-29T03:28:40.645Z,99.90
2017-12-29T03:31:08.090Z,99.90
2017-12-29T03:33:35.529Z,99.90
2017-12-29T03:36:03.751Z,99.90
2017-12-29T03:38:31.194Z,99.90
2017-12-29T03:40:58.679Z,99.90
2017-12-29T03:43:26.132Z,99.90
2017-12-29T03:45:53.590Z,99.90
2017-12-29T03:48:21.797Z,99.90
2017-12-29T03:50:50.019Z,99.90
2017-12-29T03:53:17.464Z,99.90
2017-12-29T03:55:44.927Z,99.90
2017-12-29T03:58:12.374Z,99.90
2017-12-29T04:00:40.038Z,99.90
2017-12-29T04:03:07.478Z,99.90
2017-12-29T04:05:35.702Z,99.90
2017-12-29T04:08:03.954Z,99.90
2017-12-29T04:10:31.396Z,99.90
2017-12-29T04:12:58.845Z,99.90
2017-12-29T04:15:26.299Z,99.90
2017-12-29T04:17:53.759Z,99.90
2017-12-29T04:20:21.205Z,99.90
2017-12-29T04:22:49.428Z,99.90
2017-12-29T04:25:17.638Z,99.90
2017-12-29T04:27:45.092Z,99.90
2017-12-29T04:30:12.552Z,99.90
2017-12-29T04:32:40.006Z,99.90
2017-12-29T04:35:07.456Z,99.90
2017-12-29T04:37:34.908Z,99.90
2017-12-29T04:40:02.357Z,99.90
2017-12-29T04:42:29.816Z,99.90
2017-12-29T04:44:57.269Z,99.90
2017-12-29T04:47:25.492Z,99.90
2017-12-29T04:49:52.929Z,99.90
2017-12-29T04:52:20.380Z,99.90
2017-12-29T04:54:47.856Z,99.90
2017-12-29T04:57:15.328Z,99.90
2017-12-29T04:59:42.785Z,99.90
2017-12-29T05:02:10.252Z,99.90
2017-12-29T05:04:37.726Z,99.90
2017-12-29T05:07:05.195Z,99.90
2017-12-29T05:09:32.654Z,99.90
2017-12-29T05:12:00.891Z,99.90
2017-12-29T05:14:28.364Z,99.90
2017-12-29T05:16:55.815Z,99.90
2017-12-29T05:19:23.284Z,99.90
2017-12-29T05:21:50.747Z,99.90
2017-12-29T05:24:18.215Z,99.90
2017-12-29T05:26:45.664Z,99.90
2017-12-29T05:29:25.265Z,99.90
2017-12-29T05:34:46.002Z,99.90
2017-12-29T05:37:33.453Z,99.90
2017-12-29T05:40:00.909Z,99.90
2017-12-29T05:45:30.885Z,99.90
2017-12-29T05:47:58.356Z,99.90
2017-12-29T05:53:29.151Z,99.90
2017-12-29T05:55:57.387Z,99.90
2017-12-29T05:58:26.558Z,99.90
2017-12-29T06:00:55.218Z,99.90
2017-12-29T06:03:23.438Z,99.90
2017-12-29T06:05:50.900Z,99.90
2017-12-29T06:08:18.349Z,99.90
2017-12-29T06:10:45.825Z,99.90
2017-12-29T06:13:13.276Z,99.90
2017-12-29T06:15:41.504Z,99.90
2017-12-29T06:18:09.199Z,99.90
2017-12-29T06:20:36.659Z,99.90
2017-12-29T06:23:04.117Z,99.90
2017-12-29T06:25:31.578Z,99.90
2017-12-29T06:31:02.277Z,99.90
2017-12-29T06:33:30.508Z,99.90
2017-12-29T06:35:57.982Z,99.90
2017-12-29T06:38:25.426Z,99.90
2017-12-29T06:40:52.889Z,99.90
2017-12-29T06:43:20.345Z,99.90
2017-12-29T06:45:47.812Z,99.90
2017-12-29T06:48:15.273Z,99.90
2017-12-29T06:50:42.742Z,99.90
2017-12-29T06:53:10.219Z,99.90
2017-12-29T06:55:38.458Z,99.90
2017-12-29T06:58:06.176Z,99.90
2017-12-29T07:00:34.385Z,99.90
2017-12-29T07:03:01.850Z,99.90
2017-12-29T07:05:29.313Z,99.90
2017-12-29T07:07:56.776Z,99.90
2017-12-29T07:10:24.241Z,99.90
2017-12-29T07:12:51.707Z,99.90
2017-12-29T07:15:19.160Z,99.90
2017-12-29T07:17:46.626Z,99.90
2017-12-29T07:20:14.112Z,99.90
2017-12-29T07:22:41.578Z,99.90
2017-12-29T07:25:09.038Z,99.90
2017-12-29T07:27:36.504Z,99.90
2017-12-29T07:30:03.966Z,99.90
2017-12-29T07:32:31.460Z,99.90
2017-12-29T07:34:58.924Z,99.90
2017-12-29T07:37:27.161Z,99.90
2017-12-29T07:39:54.616Z,99.90
2017-12-29T07:42:22.092Z,99.90
2017-12-29T07:44:49.557Z,99.90
2017-12-29T07:50:20.230Z,99.90
2017-12-29T07:52:47.702Z,99.90
2017-12-29T07:55:15.163Z,99.90
2017-12-29T07:57:42.629Z,99.90
2017-12-29T08:00:10.854Z,99.90
2017-12-29T08:02:38.327Z,99.90
2017-12-29T08:05:05.800Z,99.90
2017-12-29T08:10:36.172Z,99.90
2017-12-29T08:13:03.631Z,99.90
2017-12-29T08:15:31.080Z,99.90
2017-12-29T08:17:59.300Z,99.90
2017-12-29T08:20:27.512Z,99.90
2017-12-29T08:22:55.744Z,99.90
2017-12-29T08:25:23.188Z,99.90
2017-12-29T08:27:50.642Z,99.90
2017-12-29T08:30:18.098Z,99.90
2017-12-29T08:32:45.549Z,99.90
2017-12-29T08:35:13.017Z,99.80
2017-12-29T08:37:40.472Z,99.50
2017-12-29T08:40:07.924Z,98.60
2017-12-29T08:42:35.377Z,98.90
2017-12-29T08:45:02.842Z,98.60
2017-12-29T08:47:30.300Z,98.60
2017-12-29T08:49:58.525Z,97.90
2017-12-29T08:52:26.002Z,97.90
2017-12-29T08:54:53.472Z,98.50
2017-12-29T08:57:20.930Z,98.60
2017-12-29T08:59:48.467Z,98.50
2017-12-29T09:02:15.910Z,99.30
2017-12-29T09:04:43.884Z,99.60
2017-12-29T09:07:11.348Z,99.80
2017-12-29T09:09:59.029Z,99.70
2017-12-29T09:15:29.973Z,99.90
2017-12-29T09:17:57.424Z,99.90
2017-12-29T09:20:25.761Z,99.90
2017-12-29T09:22:53.996Z,99.90
2017-12-29T09:25:21.466Z,99.90
2017-12-29T09:27:48.916Z,99.90
2017-12-29T09:30:16.388Z,99.90
2017-12-29T09:32:43.878Z,99.90
2017-12-29T09:35:11.349Z,99.90
2017-12-29T09:37:38.809Z,99.60
2017-12-29T09:40:06.268Z,98.90
2017-12-29T09:42:33.746Z,99.10
2017-12-29T09:45:01.222Z,98.90
2017-12-29T09:47:28.690Z,99.00
2017-12-29T09:49:56.145Z,98.30
2017-12-29T09:52:23.613Z,97.60
2017-12-29T09:54:51.062Z,97.60
2017-12-29T09:57:18.542Z,97.40
2017-12-29T09:59:46.765Z,95.80
2017-12-29T10:02:14.218Z,96.00
2017-12-29T10:04:41.676Z,95.90
2017-12-29T10:07:09.134Z,94.40
2017-12-29T10:09:36.579Z,94.60
2017-12-29T10:12:04.054Z,94.80
2017-12-29T10:14:31.509Z,94.90
2017-12-29T10:16:58.964Z,95.10
2017-12-29T10:19:26.429Z,94.60
2017-12-29T10:21:53.893Z,94.60
2017-12-29T10:24:21.369Z,93.90
2017-12-29T10:26:48.841Z,93.70
2017-12-29T10:29:16.298Z,93.20
2017-12-29T10:31:43.772Z,92.70
2017-12-29T10:34:11.221Z,93.10
2017-12-29T10:36:38.681Z,93.60
2017-12-29T10:39:06.132Z,94.10
2017-12-29T10:41:33.597Z,94.00
2017-12-29T10:44:01.049Z,94.80
2017-12-29T10:46:28.504Z,94.60
2017-12-29T10:48:55.975Z,94.10
2017-12-29T10:51:23.424Z,93.70
2017-12-29T10:53:50.889Z,93.80
2017-12-29T10:56:18.345Z,95.50
2017-12-29T10:58:45.813Z,95.80
2017-12-29T11:01:13.264Z,95.20
2017-12-29T11:03:40.712Z,94.70
2017-12-29T11:06:08.917Z,93.30
2017-12-29T11:08:36.374Z,93.30
2017-12-29T11:11:03.814Z,93.70
2017-12-29T11:13:31.260Z,93.70
2017-12-29T11:15:59.466Z,93.80
2017-12-29T11:18:26.919Z,93.80
2017-12-29T11:20:54.360Z,93.80
2017-12-29T11:23:21.833Z,94.50
2017-12-29T11:25:49.281Z,96.00
2017-12-29T11:28:16.734Z,95.30
2017-12-29T11:30:44.938Z,94.80
2017-12-29T11:33:12.401Z,94.80
2017-12-29T11:35:39.840Z,94.80
2017-12-29T11:38:07.278Z,95.00
2017-12-29T11:40:34.737Z,93.90
2017-12-29T11:43:02.189Z,94.20
2017-12-29T11:45:30.428Z,94.50
2017-12-29T11:47:57.869Z,94.50
2017-12-29T11:50:25.336Z,93.90
2017-12-29T11:52:52.768Z,93.40
2017-12-29T11:55:20.228Z,93.50
2017-12-29T11:57:47.668Z,93.20
2017-12-29T12:00:15.122Z,92.90
2017-12-29T12:02:42.594Z,93.30
2017-12-29T12:05:10.046Z,91.80
2017-12-29T12:07:37.476Z,91.40
2017-12-29T12:10:05.693Z,91.60
2017-12-29T12:12:33.158Z,91.60
2017-12-29T12:15:00.597Z,91.20
2017-12-29T12:17:28.047Z,90.90
2017-12-29T12:19:56.311Z,91.00
2017-12-29T12:22:23.705Z,90.90
2017-12-29T12:24:51.158Z,90.00
2017-12-29T12:27:18.596Z,90.40
2017-12-29T12:29:46.056Z,90.20
2017-12-29T12:32:14.272Z,90.30
2017-12-29T12:34:41.765Z,90.20
2017-12-29T12:37:09.218Z,90.60
2017-12-29T12:39:36.658Z,90.80
2017-12-29T12:42:04.098Z,90.40
2017-12-29T12:44:31.545Z,91.00
2017-12-29T12:46:59.029Z,90.70
2017-12-29T12:49:26.485Z,90.70
2017-12-29T12:51:53.929Z,91.10
2017-12-29T12:54:21.378Z,91.60
2017-12-29T12:56:49.592Z,92.00
2017-12-29T12:59:17.069Z,92.00
2017-12-29T13:01:44.520Z,91.60
2017-12-29T13:04:11.957Z,91.10
2017-12-29T13:06:39.408Z,90.10
2017-12-29T13:09:06.873Z,90.20
2017-12-29T13:11:34.320Z,90.90
2017-12-29T13:14:01.775Z,90.10
2017-12-29T13:16:29.222Z,89.90
2017-12-29T13:18:56.680Z,89.80
2017-12-29T13:21:24.142Z,89.60
2017-12-29T13:23:51.589Z,89.10
2017-12-29T13:26:19.802Z,89.00
2017-12-29T13:28:47.248Z,89.00
2017-12-29T13:31:14.712Z,88.90
2017-12-29T13:33:42.153Z,90.30
2017-12-29T13:36:09.598Z,90.50
2017-12-29T13:38:37.812Z,90.40
2017-12-29T13:41:05.260Z,90.30
2017-12-29T13:43:32.712Z,89.80
2017-12-29T13:46:00.173Z,90.20
2017-12-29T13:48:27.630Z,90.10
2017-12-29T13:50:55.064Z,90.90
2017-12-29T13:53:22.531Z,89.10
2017-12-29T13:55:50.742Z,90.30
2017-12-29T13:58:18.235Z,90.30
2017-12-29T14:00:45.680Z,90.60
2017-12-29T14:03:13.134Z,91.00
2017-12-29T14:05:40.578Z,90.40
2017-12-29T14:08:08.063Z,89.70
2017-12-29T14:10:35.498Z,89.90
2017-12-29T14:13:03.009Z,90.00
2017-12-29T14:15:30.467Z,91.20
2017-12-29T14:17:58.678Z,90.80
2017-12-29T14:20:26.140Z,90.80
2017-12-29T14:22:53.600Z,91.30
2017-12-29T14:25:21.104Z,91.20
2017-12-29T14:27:49.316Z,91.10
2017-12-29T14:30:16.806Z,91.10
2017-12-29T14:32:44.257Z,91.70
2017-12-29T14:35:11.705Z,92.90
2017-12-29T14:37:39.152Z,96.10
2017-12-29T14:40:06.614Z,97.50
2017-12-29T14:42:34.089Z,99.60
2017-12-29T14:45:01.545Z,99.90
2017-12-29T14:47:45.944Z,99.90
2017-12-29T14:50:13.392Z,99.90
2017-12-29T14:52:40.840Z,99.90
2017-12-29T14:55:08.297Z,99.90
2017-12-29T14:57:35.798Z,99.90
2017-12-29T15:00:04.052Z,99.90
2017-12-29T15:02:31.492Z,99.90
2017-12-29T15:04:58.990Z,99.90
2017-12-29T15:07:26.464Z,99.90
2017-12-29T15:09:53.947Z,99.90
2017-12-29T15:12:21.466Z,99.90
2017-12-29T15:14:48.921Z,99.90
2017-12-29T15:17:16.414Z,99.90
2017-12-29T15:19:43.859Z,99.90
2017-12-29T15:22:11.321Z,99.90
2017-12-29T15:24:38.785Z,99.90
2017-12-29T15:27:07.038Z,99.90
2017-12-29T15:32:31.344Z,99.90
2017-12-29T15:34:58.851Z,99.90
2017-12-29T15:37:26.297Z,99.90
2017-12-29T15:39:53.806Z,99.90
2017-12-29T15:42:22.058Z,99.90
2017-12-29T15:44:49.566Z,99.90
2017-12-29T15:47:17.066Z,99.90
2017-12-29T15:49:44.568Z,99.90
2017-12-29T15:52:12.062Z,99.90
2017-12-29T15:54:39.562Z,99.90
2017-12-29T15:57:07.777Z,99.90
2017-12-29T15:59:35.240Z,99.90
2017-12-29T16:02:17.588Z,99.90
2017-12-29T16:04:45.860Z,99.90
2017-12-29T16:07:13.358Z,99.90
2017-12-29T16:09:40.797Z,99.90
2017-12-29T16:12:08.274Z,99.90
2017-12-29T16:14:35.764Z,99.90
2017-12-29T16:17:03.226Z,99.90
2017-12-29T16:19:30.735Z,99.90
2017-12-29T16:21:58.999Z,99.90
2017-12-29T16:24:26.442Z,99.90
2017-12-29T16:26:53.910Z,99.90
2017-12-29T16:29:22.139Z,99.90
2017-12-29T16:31:49.604Z,99.90
2017-12-29T16:34:17.103Z,99.90
2017-12-29T16:36:44.553Z,99.90
2017-12-29T16:39:12.055Z,99.90
2017-12-29T16:41:39.553Z,99.90
2017-12-29T16:44:07.062Z,99.90
2017-12-29T16:46:34.509Z,99.90
2017-12-29T16:49:01.975Z,99.90
2017-12-29T16:51:29.453Z,99.90
2017-12-29T16:53:57.689Z,99.90
2017-12-29T16:56:25.145Z,99.90
2017-12-29T16:58:52.648Z,99.90
2017-12-29T17:01:20.101Z,99.90
2017-12-29T17:03:47.603Z,99.90
2017-12-29T17:06:15.054Z,99.90
2017-12-29T17:08:42.530Z,99.90
2017-12-29T17:11:09.988Z,99.90
2017-12-29T17:13:37.458Z,99.90
2017-12-29T17:16:04.908Z,99.90
2017-12-29T17:18:32.385Z,99.90
2017-12-29T17:20:59.841Z,99.90
2017-12-29T17:23:27.356Z,99.90
2017-12-29T17:25:55.616Z,99.90
2017-12-29T17:28:23.125Z,99.90
2017-12-29T17:30:50.640Z,99.90
2017-12-29T17:33:18.911Z,99.90
2017-12-29T17:35:46.394Z,99.90
2017-12-29T17:38:13.887Z,99.90
2017-12-29T17:40:41.389Z,99.90
2017-12-29T17:43:09.608Z,99.90
2017-12-29T17:48:41.804Z,99.90
2017-12-29T17:51:09.269Z,99.90
2017-12-29T17:53:36.802Z,99.90
2017-12-29T17:56:04.257Z,99.90
2017-12-29T17:58:31.713Z,99.90
2017-12-29T18:00:59.215Z,99.90
2017-12-29T18:03:26.697Z,99.90
2017-12-29T18:05:54.986Z,99.90
2017-12-29T18:08:22.465Z,99.90
2017-12-29T18:10:49.926Z,99.90
2017-12-29T18:13:17.426Z,99.90
2017-12-29T18:15:44.886Z,99.90
2017-12-29T18:18:12.370Z,99.90
2017-12-29T18:20:39.883Z,99.90
2017-12-29T18:23:07.395Z,99.90
2017-12-29T18:25:36.079Z,99.90
2017-12-29T18:28:03.604Z,99.90
2017-12-29T18:30:31.178Z,99.90
2017-12-29T18:32:58.699Z,99.90
2017-12-29T18:35:26.227Z,99.90
2017-12-29T18:37:54.449Z,99.90
2017-12-29T18:40:21.921Z,99.90
2017-12-29T18:42:49.432Z,99.90
2017-12-29T18:45:18.639Z,99.90
2017-12-29T18:47:46.137Z,99.90
2017-12-29T18:50:13.891Z,99.60
2017-12-29T18:52:41.386Z,98.60
2017-12-29T18:55:18.822Z,98.40
2017-12-29T18:57:46.334Z,97.90
2017-12-29T19:00:13.860Z,98.90
2017-12-29T19:02:42.086Z,99.40
2017-12-29T19:05:10.432Z,99.90
2017-12-29T19:07:37.882Z,99.70
2017-12-29T19:10:05.402Z,99.90
2017-12-29T19:12:33.654Z,99.90
2017-12-29T19:15:01.152Z,99.90
2017-12-29T19:17:28.655Z,99.90
2017-12-29T19:19:56.105Z,99.90
2017-12-29T19:22:23.659Z,99.90
2017-12-29T19:24:51.157Z,99.90
2017-12-29T19:27:18.665Z,99.90
2017-12-29T19:29:46.169Z,99.90
2017-12-29T19:32:13.695Z,99.90
2017-12-29T19:34:41.201Z,99.90
2017-12-29T19:37:09.478Z,99.90
2017-12-29T19:39:37.750Z,99.90
2017-12-29T19:42:05.251Z,99.90
2017-12-29T19:44:32.753Z,99.90
2017-12-29T19:47:00.284Z,99.90
2017-12-29T19:49:27.781Z,99.90
2017-12-29T19:51:55.296Z,99.90
2017-12-29T19:54:22.805Z,99.90
2017-12-29T19:56:51.072Z,99.90
2017-12-29T19:59:19.349Z,99.90
2017-12-29T20:01:46.865Z,99.90
2017-12-29T20:04:14.368Z,99.90
2017-12-29T20:06:41.892Z,99.90
2017-12-29T20:09:09.396Z,99.90
2017-12-29T20:11:36.891Z,99.90
2017-12-29T20:14:04.403Z,99.90
2017-12-29T20:16:31.907Z,99.90
2017-12-29T20:18:59.421Z,99.90
2017-12-29T20:21:26.938Z,99.90
2017-12-29T20:23:54.452Z,99.90
2017-12-29T20:26:21.946Z,99.90
2017-12-29T20:28:49.452Z,99.90
2017-12-29T20:31:17.239Z,99.90
2017-12-29T20:33:45.513Z,99.90
2017-12-29T20:36:13.775Z,99.90
2017-12-29T20:38:41.291Z,99.90
2017-12-29T20:41:08.789Z,99.90
2017-12-29T20:43:36.304Z,99.90
2017-12-29T20:46:03.810Z,99.90
2017-12-29T20:48:31.328Z,99.90
2017-12-29T20:50:58.840Z,99.90
2017-12-29T20:53:26.349Z,99.90
2017-12-29T20:55:53.839Z,99.90
2017-12-29T20:58:21.359Z,99.90
2017-12-29T21:00:48.901Z,99.90
2017-12-29T21:03:17.492Z,99.90
2017-12-29T21:05:44.998Z,99.90
2017-12-29T21:08:12.505Z,99.90
2017-12-29T21:10:40.020Z,99.90
2017-12-29T21:13:07.509Z,99.90
2017-12-29T21:15:35.781Z,99.90
2017-12-29T21:18:03.280Z,99.90
2017-12-29T21:20:30.794Z,99.90
2017-12-29T21:22:58.308Z,99.90
2017-12-29T21:25:25.843Z,99.90
2017-12-29T21:27:53.370Z,99.90
2017-12-29T21:30:20.898Z,99.90
2017-12-29T21:32:48.410Z,99.90
2017-12-29T21:35:16.689Z,99.90
2017-12-29T21:37:44.977Z,99.90
2017-12-29T21:40:12.521Z,99.90
2017-12-29T21:42:40.027Z,99.90
2017-12-29T21:45:07.552Z,99.90
2017-12-29T21:47:35.068Z,99.90
2017-12-29T21:50:02.580Z,99.90
2017-12-29T21:52:30.086Z,99.90
2017-12-29T21:54:57.590Z,99.90
2017-12-29T21:57:25.115Z,99.90
2017-12-29T21:59:52.620Z,99.90
2017-12-29T22:02:20.129Z,99.90
2017-12-29T22:04:48.449Z,99.90
2017-12-29T22:07:15.955Z,99.90
2017-12-29T22:09:43.452Z,99.90
2017-12-29T22:12:10.984Z,99.90
2017-12-29T22:14:39.278Z,99.90
2017-12-29T22:17:07.557Z,99.90
2017-12-29T22:19:35.067Z,99.90
2017-12-29T22:22:02.581Z,99.90
2017-12-29T22:24:30.873Z,99.90
2017-12-29T22:26:58.384Z,99.90
2017-12-29T22:29:25.881Z,99.90
2017-12-29T22:31:54.167Z,99.90
2017-12-29T22:34:21.675Z,99.90
2017-12-29T22:36:49.196Z,99.90
2017-12-29T22:39:16.705Z,99.90
2017-12-29T22:41:44.217Z,99.90
2017-12-29T22:44:11.849Z,99.90
2017-12-29T22:46:40.198Z,99.90
2017-12-29T22:49:07.708Z,99.90
2017-12-29T22:51:35.208Z,99.90
2017-12-29T22:54:03.482Z,99.90
2017-12-29T22:56:31.025Z,99.90
2017-12-29T22:58:58.609Z,99.90
2017-12-29T23:01:26.140Z,99.90
2017-12-29T23:03:53.639Z,99.90
2017-12-29T23:06:21.172Z,99.90
2017-12-29T23:08:49.447Z,99.90
2017-12-29T23:11:16.943Z,99.90
2017-12-29T23:13:44.450Z,99.90
2017-12-29T23:16:11.957Z,99.90
2017-12-29T23:18:39.465Z,99.90
2017-12-29T23:21:06.965Z,99.90
2017-12-29T23:23:34.474Z,99.90
2017-12-29T23:26:01.977Z,99.90
2017-12-29T23:28:29.491Z,99.90
2017-12-29T23:30:56.990Z,99.90
2017-12-29T23:33:24.494Z,99.90
2017-12-29T23:35:52.781Z,99.90
2017-12-29T23:38:21.036Z,99.90
2017-12-29T23:40:50.388Z,99.90
2017-12-29T23:43:17.910Z,99.90
2017-12-29T23:45:46.200Z,99.90
2017-12-29T23:48:14.475Z,99.90
2017-12-29T23:50:42.751Z,99.90
2017-12-29T23:53:11.066Z,99.90
2017-12-29T23:55:38.557Z,99.90
2017-12-29T23:58:06.112Z,99.90
